Time;durP1;ratioP1;P1;durP2;ratioP2;P2;SDS_P1;SDS_P2;PMS_P1;PMS_P2;Temp;Humidity;BMP_temperature;BMP_pressure;BME280_temperature;BME280_humidity;BME280_pressure;Samples;Min_cycle;Max_cycle;Signal;HPM_P1;HPM_P2
2022/06/28 00:00:29;;;;;;;4.90;3.28;;;14.10;99.90;;;;;;5032008;28;20049;-73
2022/06/28 00:02:55;;;;;;;4.30;2.75;;;14.00;99.90;;;;;;5015337;28;20155;-73
2022/06/28 00:05:21;;;;;;;4.43;3.25;;;14.30;99.90;;;;;;5031761;28;20044;-72
2022/06/28 00:07:47;;;;;;;4.30;2.83;;;14.00;99.90;;;;;;5048620;28;20087;-72
2022/06/28 00:10:13;;;;;;;4.22;2.80;;;14.30;99.90;;;;;;5031622;28;20487;-73
2022/06/28 00:12:42;;;;;;;4.68;3.15;;;13.90;99.90;;;;;;5031712;28;20199;-72
2022/06/28 00:17:55;;;;;;;4.30;2.75;;;13.90;99.90;;;;;;5031856;28;20057;-72
2022/06/28 00:20:21;;;;;;;4.57;3.45;;;13.80;99.90;;;;;;5031628;28;20099;-72
2022/06/28 00:22:47;;;;;;;4.15;3.03;;;14.50;99.90;;;;;;5031631;28;20409;-72
2022/06/28 00:25:13;;;;;;;4.05;2.75;;;13.80;99.90;;;;;;5031855;28;20041;-72
2022/06/28 00:27:39;;;;;;;4.55;3.20;;;13.80;99.90;;;;;;5031588;28;20052;-72
2022/06/28 00:30:05;;;;;;;4.93;2.92;;;14.20;99.90;;;;;;5031452;28;20127;-72
2022/06/28 00:32:32;;;;;;;4.05;3.03;;;13.80;99.90;;;;;;5031291;28;20050;-72
2022/06/28 00:34:59;;;;;;;4.15;3.05;;;14.10;99.90;;;;;;5031507;28;20045;-72
2022/06/28 00:37:25;;;;;;;3.50;2.97;;;13.80;99.90;;;;;;5031477;28;20042;-72
2022/06/28 00:39:51;;;;;;;4.07;2.90;;;13.70;99.90;;;;;;5031672;28;20401;-72
2022/06/28 00:42:17;;;;;;;4.18;2.85;;;13.70;99.90;;;;;;5014834;28;20037;-72
2022/06/28 00:44:43;;;;;;;4.47;3.00;;;13.80;99.90;;;;;;5031363;28;20052;-72
2022/06/28 00:47:09;;;;;;;6.20;3.35;;;13.70;99.90;;;;;;5031572;28;20056;-72
2022/06/28 00:49:39;;;;;;;3.20;2.78;;;13.70;99.90;;;;;;5031658;28;20470;-72
2022/06/28 00:52:06;;;;;;;5.60;2.97;;;13.70;99.90;;;;;;5014911;28;20033;-72
2022/06/28 00:54:32;;;;;;;11.32;3.78;;;13.70;99.90;;;;;;5031589;28;20378;-72
2022/06/28 00:56:58;;;;;;;3.67;3.03;;;13.70;99.90;;;;;;5031607;28;20121;-72
2022/06/28 00:59:23;;;;;;;5.00;3.15;;;13.60;99.90;;;;;;5031598;28;20468;-72
2022/06/28 01:01:50;;;;;;;6.35;3.13;;;14.00;99.90;;;;;;5031537;28;20045;-72
2022/06/28 01:04:16;;;;;;;5.13;3.13;;;14.50;99.90;;;;;;5031148;28;20038;-72
2022/06/28 01:06:42;;;;;;;3.13;2.42;;;13.60;99.90;;;;;;5031160;28;20044;-72
2022/06/28 01:09:08;;;;;;;4.97;2.90;;;13.90;99.90;;;;;;5031112;28;20078;-72
2022/06/28 01:11:33;;;;;;;3.78;2.85;;;13.60;99.90;;;;;;5014671;28;20397;-72
2022/06/28 01:14:07;;;;;;;3.85;2.88;;;13.60;99.90;;;;;;5031510;28;20469;-72
2022/06/28 01:16:34;;;;;;;4.45;3.03;;;13.50;99.90;;;;;;5031368;28;20053;-73
2022/06/28 01:19:00;;;;;;;4.18;3.10;;;13.50;99.90;;;;;;5031058;28;20128;-72
2022/06/28 01:21:28;;;;;;;5.18;3.65;;;14.40;99.90;;;;;;5031627;28;20123;-73
2022/06/28 01:23:54;;;;;;;5.47;3.30;;;14.20;99.90;;;;;;5031054;28;20421;-72
2022/06/28 01:26:20;;;;;;;4.38;3.15;;;13.50;99.90;;;;;;5030988;28;20037;-72
2022/06/28 01:28:48;;;;;;;4.60;3.40;;;13.50;99.90;;;;;;5034352;28;20037;-72
2022/06/28 01:31:14;;;;;;;4.32;2.72;;;13.70;99.90;;;;;;5018041;28;20120;-72
2022/06/28 01:33:40;;;;;;;5.68;3.55;;;13.60;99.90;;;;;;5034450;28;20136;-72
2022/06/28 01:36:07;;;;;;;4.50;3.20;;;13.50;99.90;;;;;;5034756;28;20056;-72
2022/06/28 01:38:34;;;;;;;5.38;3.28;;;13.40;99.90;;;;;;5034423;28;20048;-72
2022/06/28 01:41:01;;;;;;;4.03;2.78;;;14.70;99.90;;;;;;5034659;28;20409;-72
2022/06/28 01:43:29;;;;;;;7.40;2.90;;;13.40;99.90;;;;;;5034288;28;20045;-72
2022/06/28 01:45:55;;;;;;;3.95;3.22;;;13.40;99.90;;;;;;5034291;28;20052;-72
2022/06/28 01:48:21;;;;;;;3.88;2.90;;;13.40;99.90;;;;;;5017762;28;20038;-72
2022/06/28 01:50:48;;;;;;;4.40;3.42;;;13.50;99.90;;;;;;5034191;28;20064;-72
2022/06/28 01:53:14;;;;;;;4.65;2.97;;;13.40;99.90;;;;;;5034406;28;20631;-72
2022/06/28 01:55:41;;;;;;;3.00;2.60;;;13.40;99.90;;;;;;5034136;28;20084;-72
2022/06/28 01:58:07;;;;;;;6.13;2.63;;;13.30;99.90;;;;;;5034335;28;20045;-72
2022/06/28 02:00:33;;;;;;;7.35;3.75;;;13.40;99.90;;;;;;5034408;28;20489;-72
2022/06/28 02:02:59;;;;;;;6.13;3.60;;;14.30;99.90;;;;;;5017466;28;20053;-72
2022/06/28 02:05:25;;;;;;;4.95;3.35;;;13.40;99.90;;;;;;5033941;28;20037;-72
2022/06/28 02:07:52;;;;;;;4.88;3.60;;;13.30;99.90;;;;;;5034019;28;20520;-72
2022/06/28 02:10:18;;;;;;;5.20;3.03;;;13.30;99.90;;;;;;5017670;28;20492;-72
2022/06/28 02:12:45;;;;;;;7.55;3.35;;;13.30;99.90;;;;;;5034111;28;20586;-73
2022/06/28 02:15:12;;;;;;;4.20;3.30;;;13.30;99.90;;;;;;5033754;28;20053;-72
2022/06/28 02:17:38;;;;;;;5.40;3.95;;;13.30;99.90;;;;;;5034049;28;20072;-72
2022/06/28 02:20:04;;;;;;;5.90;3.65;;;13.30;99.90;;;;;;5017584;28;20043;-72
2022/06/28 02:22:30;;;;;;;5.22;3.47;;;13.20;99.90;;;;;;5033538;28;20132;-72
2022/06/28 02:24:56;;;;;;;5.10;3.63;;;13.20;99.90;;;;;;5017291;28;20077;-72
2022/06/28 02:27:22;;;;;;;4.05;3.30;;;13.20;99.90;;;;;;5016951;28;20037;-72
2022/06/28 02:29:47;;;;;;;4.70;3.28;;;13.20;99.90;;;;;;5033535;28;20409;-73
2022/06/28 02:32:13;;;;;;;5.32;2.95;;;13.20;99.90;;;;;;5033521;28;20054;-72
2022/06/28 02:40:21;;;;;;;6.88;3.45;;;13.20;99.90;;;;;;5032352;28;20051;-72
2022/06/28 02:42:47;;;;;;;5.05;3.45;;;13.20;99.90;;;;;;5033191;28;20038;-72
2022/06/28 02:45:13;;;;;;;3.55;2.28;;;14.10;99.90;;;;;;5033204;28;20042;-72
2022/06/28 02:47:39;;;;;;;4.40;3.30;;;13.10;99.90;;;;;;5033545;28;20132;-72
2022/06/28 02:50:06;;;;;;;7.43;3.20;;;13.10;99.90;;;;;;5033360;28;20041;-72
2022/06/28 02:52:32;;;;;;;5.38;3.22;;;13.10;99.90;;;;;;5033020;28;20049;-72
2022/06/28 02:54:57;;;;;;;8.38;3.83;;;13.10;99.90;;;;;;5016576;28;20052;-72
2022/06/28 02:57:23;;;;;;;6.57;3.53;;;13.10;99.90;;;;;;5033121;28;20489;-72
2022/06/28 02:59:49;;;;;;;5.20;3.55;;;13.20;99.90;;;;;;5016431;28;20045;-72
2022/06/28 03:02:15;;;;;;;6.25;3.72;;;13.00;99.90;;;;;;5032808;28;20048;-72
2022/06/28 03:04:40;;;;;;;4.70;2.75;;;13.00;99.90;;;;;;5016626;28;20366;-72
2022/06/28 03:07:06;;;;;;;4.95;3.60;;;13.70;99.90;;;;;;5033026;28;20041;-72
2022/06/28 03:09:31;;;;;;;6.90;3.35;;;13.00;99.90;;;;;;5016238;28;20048;-72
2022/06/28 03:11:57;;;;;;;8.68;3.35;;;13.00;99.90;;;;;;5034185;28;20125;-72
2022/06/28 03:14:23;;;;;;;5.28;3.38;;;13.00;99.90;;;;;;5032569;28;20073;-73
2022/06/28 03:16:49;;;;;;;6.10;3.45;;;13.00;99.90;;;;;;5032489;28;20072;-72
2022/06/28 03:19:14;;;;;;;5.68;3.38;;;13.00;99.90;;;;;;5032522;28;20096;-72
2022/06/28 03:21:40;;;;;;;5.22;3.25;;;13.00;99.90;;;;;;5032498;28;20463;-72
2022/06/28 03:24:06;;;;;;;5.65;3.55;;;13.00;99.90;;;;;;5032439;28;20128;-72
2022/06/28 03:26:32;;;;;;;4.90;2.83;;;13.00;99.90;;;;;;5032349;28;20038;-72
2022/06/28 03:28:57;;;;;;;4.57;3.35;;;13.00;99.90;;;;;;5032386;28;20068;-73
2022/06/28 03:31:23;;;;;;;5.20;3.20;;;12.90;99.90;;;;;;5032250;28;20033;-72
2022/06/28 03:33:49;;;;;;;3.55;2.90;;;12.90;99.90;;;;;;5032095;28;20065;-72
2022/06/28 03:36:14;;;;;;;5.00;2.95;;;13.00;99.90;;;;;;5032601;28;20076;-72
2022/06/28 03:38:40;;;;;;;5.57;3.47;;;13.40;99.90;;;;;;5032512;28;20084;-71
2022/06/28 03:41:06;;;;;;;5.78;3.50;;;12.90;99.90;;;;;;5032131;28;20045;-72
2022/06/28 03:43:31;;;;;;;4.57;3.22;;;12.90;99.90;;;;;;5032043;28;20067;-72
2022/06/28 03:45:57;;;;;;;5.03;3.63;;;12.90;99.90;;;;;;5032034;28;20094;-72
2022/06/28 03:48:23;;;;;;;4.93;3.22;;;14.00;99.90;;;;;;5032038;28;20037;-72
2022/06/28 03:50:48;;;;;;;4.75;3.22;;;12.90;99.90;;;;;;5015693;28;20049;-73
2022/06/28 03:53:14;;;;;;;5.00;3.03;;;12.90;99.90;;;;;;5031940;28;20041;-72
2022/06/28 03:55:40;;;;;;;4.05;2.88;;;12.90;99.90;;;;;;5015683;28;20037;-73
2022/06/28 03:58:05;;;;;;;7.10;3.40;;;12.90;99.90;;;;;;5031856;28;20044;-73
2022/06/28 04:00:31;;;;;;;4.22;2.80;;;13.10;99.90;;;;;;5032192;28;20045;-72
2022/06/28 04:03:00;;;;;;;5.57;3.55;;;12.90;99.90;;;;;;5031826;28;20080;-72
2022/06/28 04:05:26;;;;;;;5.07;3.17;;;13.20;99.90;;;;;;5031795;28;20046;-72
2022/06/28 04:07:51;;;;;;;4.30;3.05;;;14.00;99.90;;;;;;5031738;28;20081;-72
2022/06/28 04:10:17;;;;;;;3.90;3.05;;;12.90;99.90;;;;;;5031918;28;20092;-72
2022/06/28 04:12:43;;;;;;;5.40;3.55;;;12.90;99.90;;;;;;5031666;28;20044;-72
2022/06/28 04:15:09;;;;;;;5.50;3.65;;;13.00;99.90;;;;;;5031628;28;20049;-72
2022/06/28 04:17:35;;;;;;;4.25;2.97;;;13.00;99.90;;;;;;5031918;28;20485;-73
2022/06/28 04:20:01;;;;;;;4.45;2.78;;;13.00;99.90;;;;;;5031862;28;20136;-72
2022/06/28 04:22:26;;;;;;;4.40;2.72;;;13.00;99.90;;;;;;5015346;28;20049;-72
2022/06/28 04:24:52;;;;;;;5.38;3.30;;;13.00;99.90;;;;;;5031601;28;20041;-72
2022/06/28 04:27:17;;;;;;;4.68;2.67;;;13.10;99.90;;;;;;5015450;28;20037;-72
2022/06/28 04:29:43;;;;;;;5.45;2.97;;;13.10;99.90;;;;;;5031529;28;20124;-72
2022/06/28 04:32:09;;;;;;;10.85;3.42;;;13.60;99.90;;;;;;5015207;28;20131;-72
2022/06/28 04:34:34;;;;;;;4.13;2.47;;;13.20;99.90;;;;;;5015015;28;20049;-72
2022/06/28 04:37:00;;;;;;;3.85;2.72;;;13.30;99.90;;;;;;5031498;28;20040;-72
2022/06/28 04:39:26;;;;;;;4.30;2.85;;;13.30;99.90;;;;;;5014938;28;20033;-72
2022/06/28 04:41:51;;;;;;;5.95;2.75;;;13.30;99.90;;;;;;5031426;28;20492;-73
2022/06/28 04:44:17;;;;;;;4.68;2.58;;;13.80;99.90;;;;;;5031390;28;20404;-74
2022/06/28 04:46:43;;;;;;;5.50;2.72;;;13.40;99.90;;;;;;5031373;28;20064;-72
2022/06/28 04:49:08;;;;;;;4.10;2.65;;;13.50;99.90;;;;;;5014896;28;20099;-72
2022/06/28 04:51:34;;;;;;;6.22;2.92;;;13.60;99.90;;;;;;5032617;28;20040;-73
2022/06/28 04:54:00;;;;;;;3.90;2.72;;;13.60;99.90;;;;;;5031562;28;20041;-73
2022/06/28 04:56:25;;;;;;;3.95;2.95;;;13.70;99.90;;;;;;5031309;28;20085;-73
2022/06/28 04:58:51;;;;;;;5.13;2.72;;;13.80;99.90;;;;;;5031293;28;20047;-72
2022/06/28 05:01:17;;;;;;;4.35;2.88;;;15.10;99.90;;;;;;5014893;28;20041;-72
2022/06/28 05:03:43;;;;;;;4.75;3.05;;;13.80;99.90;;;;;;5035943;28;20104;-73
2022/06/28 05:06:11;;;;;;;4.72;3.05;;;13.90;99.90;;;;;;5035410;28;20045;-71
2022/06/28 05:08:36;;;;;;;3.38;2.90;;;13.90;99.90;;;;;;5035099;28;20037;-73
2022/06/28 05:11:02;;;;;;;3.45;2.38;;;14.60;99.90;;;;;;5035162;28;20096;-72
2022/06/28 05:13:29;;;;;;;7.15;3.25;;;14.10;99.90;;;;;;5018442;28;20124;-72
2022/06/28 05:15:54;;;;;;;4.75;2.90;;;14.10;99.90;;;;;;5035500;28;20041;-72
2022/06/28 05:18:20;;;;;;;7.43;3.58;;;14.20;99.90;;;;;;5018583;28;20111;-72
2022/06/28 05:20:46;;;;;;;5.95;3.58;;;14.30;99.90;;;;;;5034863;28;20124;-71
2022/06/28 05:23:11;;;;;;;6.03;3.25;;;14.40;99.90;;;;;;5035502;28;20124;-72
2022/06/28 05:25:37;;;;;;;4.78;3.22;;;14.40;99.90;;;;;;5018303;28;20033;-77
2022/06/28 05:28:03;;;;;;;5.93;3.03;;;14.50;99.90;;;;;;5034649;28;20404;-72
2022/06/28 05:30:29;;;;;;;3.97;2.92;;;14.60;99.90;;;;;;5034746;28;20489;-72
2022/06/28 05:32:54;;;;;;;5.00;2.97;;;14.60;99.90;;;;;;5034324;28;20057;-71
2022/06/28 05:35:20;;;;;;;4.18;2.92;;;14.70;99.90;;;;;;5034574;28;20060;-72
2022/06/28 05:37:45;;;;;;;6.15;2.90;;;14.80;99.90;;;;;;5035891;28;20041;-73
2022/06/28 05:40:11;;;;;;;5.03;3.05;;;14.90;99.90;;;;;;5034659;28;20037;-73
2022/06/28 05:42:37;;;;;;;4.93;3.17;;;15.00;99.90;;;;;;5034533;28;20045;-72
2022/06/28 05:45:03;;;;;;;5.78;2.72;;;15.10;99.90;;;;;;5034366;28;20127;-72
2022/06/28 05:47:28;;;;;;;5.28;2.58;;;15.20;99.90;;;;;;5034653;28;20073;-72
2022/06/28 05:49:54;;;;;;;4.72;3.03;;;15.40;99.90;;;;;;5034289;28;20068;-73
2022/06/28 05:52:20;;;;;;;5.13;2.63;;;15.40;99.90;;;;;;5018053;28;20037;-76
2022/06/28 05:54:45;;;;;;;5.90;3.00;;;16.40;99.90;;;;;;5034261;28;20041;-81
2022/06/28 05:57:11;;;;;;;6.35;3.10;;;16.10;99.90;;;;;;5017884;28;20038;-73
2022/06/28 05:59:37;;;;;;;5.13;2.45;;;17.00;99.90;;;;;;5050978;28;20037;-73
2022/06/28 06:02:02;;;;;;;4.60;2.40;;;16.50;99.90;;;;;;5050887;28;20049;-74
2022/06/28 06:04:28;;;;;;;5.68;2.65;;;16.00;99.90;;;;;;5033953;28;20049;-73
2022/06/28 06:06:54;;;;;;;3.67;2.47;;;15.80;99.90;;;;;;5033899;28;20409;-73
2022/06/28 06:09:20;;;;;;;3.75;2.42;;;15.80;99.90;;;;;;5017670;28;20069;-74
2022/06/28 06:11:47;;;;;;;4.63;2.45;;;15.70;99.90;;;;;;5033929;28;20040;-72
2022/06/28 06:14:16;;;;;;;4.22;2.80;;;16.00;99.90;;;;;;5032845;28;20056;-78
2022/06/28 06:16:43;;;;;;;3.03;2.08;;;16.00;99.90;;;;;;5017713;28;20048;-77
2022/06/28 06:19:08;;;;;;;4.68;2.40;;;16.10;99.90;;;;;;5034068;28;20663;-80
2022/06/28 06:21:34;;;;;;;5.88;2.10;;;16.70;99.90;;;;;;5017331;28;20136;-82
2022/06/28 06:24:00;;;;;;;4.57;2.65;;;16.50;99.90;;;;;;5017184;28;20491;-79
2022/06/28 06:26:25;;;;;;;4.78;2.08;;;16.80;99.90;;;;;;5017160;28;20041;-73
2022/06/28 06:28:51;;;;;;;7.15;2.50;;;16.50;99.90;;;;;;5033771;28;20143;-73
2022/06/28 06:31:17;;;;;;;3.20;1.90;;;17.00;99.90;;;;;;5017225;28;20042;-73
2022/06/28 06:33:43;;;;;;;4.07;1.98;;;17.00;99.90;;;;;;5017020;28;20061;-73
2022/06/28 06:36:08;;;;;;;4.88;2.22;;;16.80;99.90;;;;;;5016877;28;20048;-73
2022/06/28 06:38:34;;;;;;;3.22;1.70;;;17.40;99.90;;;;;;5033667;28;20440;-73
2022/06/28 06:40:59;;;;;;;3.72;1.48;;;17.00;99.90;;;;;;5016931;28;20075;-73
2022/06/28 06:43:29;;;;;;;2.63;1.52;;;17.70;99.90;;;;;;5016759;28;20037;-73
2022/06/28 06:45:55;;;;;;;5.15;1.45;;;17.30;99.90;;;;;;5033501;28;20396;-73
2022/06/28 06:48:24;;;;;;;1.95;1.35;;;17.30;99.90;;;;;;5033347;28;20489;-73
2022/06/28 06:50:49;;;;;;;1.55;1.10;;;17.30;99.90;;;;;;5033435;28;20500;-73
2022/06/28 06:53:18;;;;;;;5.32;1.60;;;17.50;99.90;;;;;;5033097;28;20041;-73
2022/06/28 06:55:45;;;;;;;2.75;1.40;;;17.50;99.90;;;;;;5033301;28;20041;-73
2022/06/28 06:58:11;;;;;;;1.90;1.30;;;17.60;99.90;;;;;;5033026;28;20089;-73
2022/06/28 07:00:37;;;;;;;2.53;1.50;;;17.70;99.90;;;;;;5032961;28;20095;-73
2022/06/28 07:03:03;;;;;;;4.05;1.35;;;17.70;99.90;;;;;;5032594;28;20037;-73
2022/06/28 07:05:30;;;;;;;4.28;1.25;;;17.80;99.90;;;;;;5032959;28;20060;-73
2022/06/28 07:07:55;;;;;;;2.20;0.98;;;17.90;99.90;;;;;;5017049;28;20049;-72
2022/06/28 07:10:21;;;;;;;3.05;1.33;;;18.00;99.90;;;;;;5032592;28;20037;-72
2022/06/28 07:12:47;;;;;;;3.35;1.23;;;18.00;99.90;;;;;;5032699;28;20049;-73
2022/06/28 07:15:13;;;;;;;1.85;1.35;;;17.90;99.90;;;;;;5032575;28;20476;-73
2022/06/28 07:17:38;;;;;;;6.60;1.13;;;17.90;99.90;;;;;;5032557;28;20623;-72
2022/06/28 07:20:05;;;;;;;2.13;1.52;;;18.00;99.90;;;;;;5015895;28;20041;-73
2022/06/28 07:22:30;;;;;;;2.97;1.52;;;18.10;99.90;;;;;;5032359;28;20041;-73
2022/06/28 07:24:56;;;;;;;2.95;1.35;;;18.00;99.90;;;;;;5031976;28;20048;-73
2022/06/28 07:27:23;;;;;;;2.63;1.45;;;17.90;99.90;;;;;;5032244;28;20041;-72
2022/06/28 07:29:49;;;;;;;4.13;1.10;;;17.90;99.90;;;;;;5032200;28;20049;-73
2022/06/28 07:32:15;;;;;;;3.08;0.98;;;18.20;99.90;;;;;;5032003;28;20125;-72
2022/06/28 07:34:41;;;;;;;1.88;1.17;;;18.30;99.90;;;;;;5032453;28;20081;-73
2022/06/28 07:37:06;;;;;;;5.05;1.60;;;18.40;99.90;;;;;;5015674;28;20064;-73
2022/06/28 07:39:32;;;;;;;4.32;1.50;;;18.50;99.90;;;;;;5031978;28;20045;-73
2022/06/28 07:41:59;;;;;;;3.35;1.27;;;18.80;99.90;;;;;;5031956;28;20124;-73
2022/06/28 07:44:24;;;;;;;3.08;1.50;;;18.80;99.90;;;;;;5015314;28;20485;-73
2022/06/28 07:46:50;;;;;;;6.28;1.30;;;19.00;99.90;;;;;;5015595;28;20132;-73
2022/06/28 07:49:16;;;;;;;5.00;1.40;;;19.00;99.90;;;;;;5015667;28;20069;-73
2022/06/28 07:54:26;;;;;;;3.05;1.20;;;19.10;99.90;;;;;;5031920;28;20187;-73
2022/06/28 07:56:52;;;;;;;2.58;1.02;;;19.20;99.90;;;;;;5031809;28;20041;-73
2022/06/28 07:59:17;;;;;;;2.28;1.25;;;19.10;99.90;;;;;;5032201;28;20366;-73
2022/06/28 08:01:43;;;;;;;1.23;1.02;;;19.20;99.90;;;;;;5031796;28;20088;-73
2022/06/28 08:04:11;;;;;;;3.15;1.13;;;19.60;99.90;;;;;;5015166;28;20052;-73
2022/06/28 08:06:37;;;;;;;2.10;0.98;;;19.30;99.90;;;;;;5032084;28;20048;-73
2022/06/28 08:09:03;;;;;;;1.65;1.13;;;19.50;99.90;;;;;;5031770;28;20079;-72
2022/06/28 08:11:29;;;;;;;2.35;1.05;;;19.60;99.90;;;;;;5031593;28;20076;-72
2022/06/28 08:13:55;;;;;;;1.25;0.85;;;19.80;99.90;;;;;;5015306;28;20072;-72
2022/06/28 08:16:22;;;;;;;2.75;1.23;;;19.90;99.90;;;;;;5031847;28;20400;-73
2022/06/28 08:18:48;;;;;;;1.73;0.93;;;20.10;99.90;;;;;;5031533;28;20033;-72
2022/06/28 08:21:13;;;;;;;6.53;1.00;;;20.40;99.90;;;;;;5031465;28;20041;-73
2022/06/28 08:23:39;;;;;;;1.23;0.70;;;19.90;99.90;;;;;;5031406;28;20049;-72
2022/06/28 08:26:05;;;;;;;1.35;0.85;;;19.80;99.90;;;;;;5031681;28;20433;-73
2022/06/28 08:28:30;;;;;;;1.90;0.88;;;19.90;99.90;;;;;;5014947;28;20493;-73
2022/06/28 08:30:56;;;;;;;6.05;0.85;;;20.10;99.90;;;;;;5031742;28;20072;-73
2022/06/28 08:33:22;;;;;;;2.00;0.70;;;20.20;99.90;;;;;;5031606;28;20057;-73
2022/06/28 08:35:47;;;;;;;1.50;0.70;;;20.30;99.90;;;;;;5031502;28;20054;-73
2022/06/28 08:38:13;;;;;;;1.73;0.50;;;20.30;99.90;;;;;;5034628;28;20045;-73
2022/06/28 08:40:39;;;;;;;0.73;0.60;;;20.30;99.90;;;;;;5035592;28;20099;-73
2022/06/28 08:43:06;;;;;;;0.47;0.47;;;20.30;99.90;;;;;;5018984;28;20051;-73
2022/06/28 08:45:33;;;;;;;2.60;0.60;;;20.30;99.90;;;;;;5035430;28;20045;-72
2022/06/28 08:48:07;;;;;;;1.55;0.70;;;20.30;99.90;;;;;;5035514;28;20517;-73
2022/06/28 08:50:37;;;;;;;1.23;0.55;;;20.30;99.90;;;;;;5035196;28;20124;-73
2022/06/28 08:53:08;;;;;;;2.05;0.88;;;20.30;99.90;;;;;;5018934;28;20038;-73
2022/06/28 08:55:35;;;;;;;2.42;0.50;;;20.40;99.90;;;;;;5036351;28;20044;-73
2022/06/28 08:58:04;;;;;;;3.60;0.90;;;20.60;99.90;;;;;;5035346;28;20040;-73
2022/06/28 09:00:30;;;;;;;0.70;0.50;;;20.60;99.90;;;;;;5035067;28;20045;-73
2022/06/28 09:02:56;;;;;;;3.25;0.50;;;20.60;99.90;;;;;;5035127;28;20106;-72
2022/06/28 09:05:23;;;;;;;2.47;0.85;;;20.70;99.90;;;;;;5051482;28;20045;-72
2022/06/28 09:07:50;;;;;;;1.38;0.60;;;20.80;99.90;;;;;;5034866;28;20093;-72
2022/06/28 09:10:17;;;;;;;2.35;0.90;;;20.80;99.90;;;;;;5035109;28;20041;-72
2022/06/28 09:12:42;;;;;;;0.57;0.50;;;20.70;99.90;;;;;;5035038;28;20053;-72
2022/06/28 09:15:09;;;;;;;1.55;0.55;;;20.60;99.90;;;;;;5035031;28;20049;-72
2022/06/28 09:17:35;;;;;;;2.50;0.60;;;20.70;99.90;;;;;;5034705;28;20405;-72
2022/06/28 09:20:09;;;;;;;1.05;0.40;;;20.60;99.90;;;;;;5034972;28;20112;-72
2022/06/28 09:22:41;;;;;;;1.25;0.63;;;20.40;99.90;;;;;;5018357;28;20124;-72
2022/06/28 09:25:11;;;;;;;1.25;0.68;;;20.10;99.90;;;;;;5034857;28;20393;-72
2022/06/28 09:27:40;;;;;;;2.55;0.85;;;19.90;99.90;;;;;;5018332;28;20366;-72
2022/06/28 09:30:12;;;;;;;2.45;0.90;;;20.10;99.90;;;;;;5018041;28;20045;-72
2022/06/28 09:32:39;;;;;;;1.20;0.75;;;20.20;99.90;;;;;;5017812;28;20041;-72
2022/06/28 09:35:07;;;;;;;2.88;0.75;;;20.20;99.90;;;;;;5034748;28;20057;-72
2022/06/28 09:37:56;;;;;;;0.88;0.60;;;20.20;99.90;;;;;;5034386;28;20041;-72
2022/06/28 09:40:25;;;;;;;1.38;0.60;;;20.30;99.90;;;;;;5034268;28;20128;-72
2022/06/28 09:43:14;;;;;;;1.67;0.60;;;20.20;99.90;;;;;;5034505;28;20405;-74
2022/06/28 09:45:50;;;;;;;0.80;0.40;;;20.30;99.90;;;;;;5034627;28;20531;-72
2022/06/28 09:48:20;;;;;;;0.60;0.60;;;20.40;99.90;;;;;;5017795;28;20096;-72
2022/06/28 09:50:47;;;;;;;1.05;0.50;;;20.70;99.90;;;;;;5018123;28;20040;-72
2022/06/28 09:53:15;;;;;;;2.67;0.70;;;20.70;99.90;;;;;;5034145;28;20041;-71
2022/06/28 09:55:42;;;;;;;2.05;0.40;;;20.70;99.90;;;;;;5034204;28;20122;-72
2022/06/28 09:58:09;;;;;;;0.75;0.50;;;20.60;99.90;;;;;;5034107;28;20052;-72
2022/06/28 10:00:39;;;;;;;0.70;0.40;;;20.80;99.90;;;;;;5034116;28;20048;-72
2022/06/28 10:03:05;;;;;;;0.70;0.50;;;20.90;99.90;;;;;;5034204;28;20038;-72
2022/06/28 10:05:32;;;;;;;1.83;0.75;;;21.00;99.90;;;;;;5033915;28;20029;-72
2022/06/28 10:07:58;;;;;;;1.33;0.47;;;21.00;99.90;;;;;;5034084;28;20124;-72
2022/06/28 10:10:24;;;;;;;0.55;0.32;;;20.80;99.90;;;;;;5017436;28;20037;-72
2022/06/28 10:15:37;;;;;;;1.50;0.50;;;20.90;99.90;;;;;;5033904;28;20060;-72
2022/06/28 10:18:19;;;;;;;5.97;0.60;;;20.90;99.90;;;;;;5034071;28;20067;-71
2022/06/28 10:20:44;;;;;;;1.08;0.68;;;20.90;99.90;;;;;;5017249;28;20079;-71
2022/06/28 10:23:33;;;;;;;0.35;0.30;;;20.90;99.90;;;;;;5033751;28;20465;-74
2022/06/28 10:26:18;;;;;;;0.65;0.50;;;20.80;99.90;;;;;;5033553;28;20041;-74
2022/06/28 10:29:03;;;;;;;0.85;0.60;;;20.80;99.90;;;;;;5017202;28;20374;-73
2022/06/28 10:31:30;;;;;;;1.88;0.40;;;20.70;99.90;;;;;;5033643;28;20378;-71
2022/06/28 10:34:23;;;;;;;0.50;0.40;;;20.60;99.90;;;;;;5016672;28;20057;-72
2022/06/28 10:36:56;;;;;;;1.13;0.60;;;20.70;99.90;;;;;;5030240;28;20049;-72
2022/06/28 10:39:31;;;;;;;0.60;0.30;;;20.80;99.90;;;;;;5033026;28;20120;-72
2022/06/28 10:42:00;;;;;;;0.30;0.25;;;20.90;99.90;;;;;;5017190;28;20379;-72
2022/06/28 10:44:31;;;;;;;2.60;0.50;;;20.90;99.90;;;;;;5016385;28;20037;-72
2022/06/28 10:47:00;;;;;;;1.05;0.50;;;21.00;99.90;;;;;;5016817;28;20523;-72
2022/06/28 10:49:26;;;;;;;1.80;0.70;;;21.10;99.90;;;;;;5033046;28;20042;-72
2022/06/28 10:52:09;;;;;;;5.95;0.60;;;21.10;99.90;;;;;;5000550;28;20542;-72
2022/06/28 10:54:36;;;;;;;1.45;0.43;;;21.20;99.90;;;;;;5033184;28;20041;-72
2022/06/28 10:57:26;;;;;;;0.85;0.50;;;21.00;99.90;;;;;;5032767;28;20049;-72
2022/06/28 10:59:55;;;;;;;1.05;0.65;;;20.90;99.90;;;;;;5016130;28;20045;-72
2022/06/28 11:02:22;;;;;;;1.63;0.52;;;21.00;99.90;;;;;;5032705;28;20046;-72
2022/06/28 11:05:08;;;;;;;0.40;0.30;;;20.90;99.90;;;;;;5032663;28;20125;-72
2022/06/28 11:07:37;;;;;;;1.70;0.65;;;20.90;99.90;;;;;;5016439;28;20041;-72
2022/06/28 11:10:16;;;;;;;2.08;0.55;;;20.70;99.90;;;;;;5032601;28;20052;-72
2022/06/28 11:12:43;;;;;;;0.30;0.30;;;20.50;99.90;;;;;;5032677;28;20049;-73
2022/06/28 11:15:11;;;;;;;1.77;0.55;;;20.50;99.90;;;;;;5016447;28;20401;-72
2022/06/28 11:17:44;;;;;;;1.65;0.47;;;20.60;99.90;;;;;;5032426;28;20048;-73
2022/06/28 11:20:15;;;;;;;0.50;0.30;;;20.70;99.90;;;;;;5032438;28;20045;-73
2022/06/28 11:22:45;;;;;;;;;;;20.90;99.90;;;;;;5032746;28;20041;-73
2022/06/28 11:27:19;;;;;;;1.55;0.40;;;21.10;99.90;;;;;;5032797;28;20386;-72
2022/06/28 11:28:16;;;;;;;0.70;0.43;;;21.20;99.90;;;;;;5018833;28;20049;-73
2022/06/28 11:30:42;;;;;;;0.57;0.55;;;21.40;99.90;;;;;;5032268;28;20459;-72
2022/06/28 11:33:10;;;;;;;0.40;0.38;;;21.30;99.90;;;;;;5015828;28;20568;-73
2022/06/28 11:35:36;;;;;;;0.20;0.20;;;21.30;99.90;;;;;;5032202;28;20046;-72
2022/06/28 11:38:07;;;;;;;1.27;0.60;;;21.30;99.90;;;;;;5015811;28;20037;-72
2022/06/28 11:40:41;;;;;;;0.20;0.20;;;21.50;99.90;;;;;;5032389;28;20077;-72
2022/06/28 11:43:10;;;;;;;0.45;0.38;;;21.60;99.90;;;;;;5031876;28;20045;-73
2022/06/28 11:45:41;;;;;;;0.98;0.55;;;21.50;99.90;;;;;;5031998;28;20179;-72
2022/06/28 11:48:34;;;;;;;1.70;0.68;;;21.40;99.90;;;;;;5015509;28;20409;-72
2022/06/28 11:51:00;;;;;;;0.68;0.52;;;21.10;99.90;;;;;;5029104;28;20049;-72
2022/06/28 11:53:29;;;;;;;1.13;0.50;;;21.00;99.90;;;;;;5032140;28;20098;-72
2022/06/28 11:55:57;;;;;;;0.45;0.32;;;21.00;99.90;;;;;;5032121;28;20056;-72
2022/06/28 11:58:32;;;;;;;0.82;0.35;;;21.00;99.90;;;;;;5032011;28;20057;-72
2022/06/28 12:01:04;;;;;;;1.13;0.52;;;21.00;99.90;;;;;;5031772;28;20044;-73
2022/06/28 12:03:31;;;;;;;3.22;0.50;;;21.00;99.90;;;;;;5015222;28;20044;-72
2022/06/28 12:05:58;;;;;;;1.45;0.50;;;20.90;99.90;;;;;;5031957;28;20045;-72
2022/06/28 12:08:44;;;;;;;1.40;0.20;;;20.90;99.90;;;;;;5015223;28;20045;-73
2022/06/28 12:11:32;;;;;;;1.15;0.68;;;21.00;99.90;;;;;;5031377;28;20052;-72
2022/06/28 12:14:05;;;;;;;1.67;0.45;;;21.10;99.90;;;;;;5031941;28;20485;-72
2022/06/28 12:16:35;;;;;;;1.08;0.17;;;21.20;99.90;;;;;;5031599;28;20052;-80
2022/06/28 12:19:03;;;;;;;2.17;0.40;;;21.30;99.90;;;;;;5015404;28;20046;-73
2022/06/28 13:10:44;;;;;;;0.30;0.30;;;21.80;99.90;;;;;;5090339;28;20162;-66
2022/06/28 13:13:10;;;;;;;0.70;0.40;;;21.70;99.90;;;;;;5090340;28;20044;-66
2022/06/28 13:15:36;;;;;;;0.73;0.40;;;21.70;99.90;;;;;;5090496;28;20032;-65
2022/06/28 13:18:01;;;;;;;3.40;0.47;;;21.70;99.90;;;;;;5090468;28;20032;-66
2022/06/28 13:20:27;;;;;;;1.50;0.50;;;21.80;99.90;;;;;;5090275;28;20395;-72
2022/06/28 13:22:53;;;;;;;2.05;0.40;;;21.70;99.90;;;;;;5090489;28;20048;-65
2022/06/28 13:25:18;;;;;;;1.17;0.57;;;21.70;99.90;;;;;;5088688;28;20067;-63
2022/06/28 13:27:44;;;;;;;0.52;0.50;;;22.00;99.90;;;;;;5090132;28;20119;-63
2022/06/28 13:30:11;;;;;;;0.70;0.40;;;22.00;99.90;;;;;;5090099;28;20047;-62
2022/06/28 13:32:37;;;;;;;0.82;0.40;;;21.90;99.90;;;;;;5090216;28;20036;-62
2022/06/28 13:35:04;;;;;;;0.30;0.30;;;22.00;99.90;;;;;;5089717;28;20123;-62
2022/06/28 13:37:30;;;;;;;4.25;0.40;;;22.10;99.90;;;;;;5089704;28;20071;-64
2022/06/28 13:39:56;;;;;;;4.32;0.60;;;22.10;99.90;;;;;;5088704;28;20079;-65
2022/06/28 13:42:22;;;;;;;0.88;0.35;;;22.20;99.90;;;;;;5089777;28;20139;-65
2022/06/28 13:44:47;;;;;;;1.15;0.65;;;22.10;99.90;;;;;;5089761;28;20068;-66
2022/06/28 13:47:14;;;;;;;0.98;0.50;;;22.10;99.90;;;;;;5089724;28;20070;-65
2022/06/28 13:49:40;;;;;;;1.50;0.47;;;22.40;99.90;;;;;;5089565;28;20145;-74
2022/06/28 13:52:05;;;;;;;1.13;0.57;;;22.50;99.90;;;;;;5089550;28;20082;-65